sensor_id;sensor_type;location;lat;lon;timestamp;P1;durP1;ratioP1;P2;durP2;ratioP2
53022;SDS011;38913;44.338;11.206;2023-02-26T00:01:34;24.95;;;12.65;;
53022;SDS011;38913;44.338;11.206;2023-02-26T00:04:01;22.80;;;13.25;;
53022;SDS011;38913;44.338;11.206;2023-02-26T00:06:27;20.80;;;12.23;;
53022;SDS011;38913;44.338;11.206;2023-02-26T00:08:53;20.05;;;11.23;;
53022;SDS011;38913;44.338;11.206;2023-02-26T00:11:18;20.45;;;10.50;;
53022;SDS011;38913;44.338;11.206;2023-02-26T00:13:43;21.35;;;11.93;;
53022;SDS011;38913;44.338;11.206;2023-02-26T00:16:18;26.17;;;13.25;;
53022;SDS011;38913;44.338;11.206;2023-02-26T00:18:47;27.98;;;15.23;;
53022;SDS011;38913;44.338;11.206;2023-02-26T00:21:16;31.30;;;16.88;;
53022;SDS011;38913;44.338;11.206;2023-02-26T00:23:42;35.97;;;18.80;;
53022;SDS011;38913;44.338;11.206;2023-02-26T00:26:08;31.92;;;17.45;;
53022;SDS011;38913;44.338;11.206;2023-02-26T00:28:33;26.45;;;13.80;;
53022;SDS011;38913;44.338;11.206;2023-02-26T00:30:58;21.27;;;11.95;;
53022;SDS011;38913;44.338;11.206;2023-02-26T00:33:24;22.60;;;10.90;;
53022;SDS011;38913;44.338;11.206;2023-02-26T00:35:50;25.88;;;12.65;;
53022;SDS011;38913;44.338;11.206;2023-02-26T00:38:20;23.05;;;13.10;;
53022;SDS011;38913;44.338;11.206;2023-02-26T00:40:46;21.90;;;12.82;;
53022;SDS011;38913;44.338;11.206;2023-02-26T00:43:16;24.42;;;13.15;;
53022;SDS011;38913;44.338;11.206;2023-02-26T00:46:06;20.90;;;11.88;;
53022;SDS011;38913;44.338;11.206;2023-02-26T00:51:01;23.37;;;12.33;;
53022;SDS011;38913;44.338;11.206;2023-02-26T00:53:53;21.70;;;11.63;;
53022;SDS011;38913;44.338;11.206;2023-02-26T00:56:15;23.83;;;13.43;;
53022;SDS011;38913;44.338;11.206;2023-02-26T00:58:40;23.33;;;12.18;;
53022;SDS011;38913;44.338;11.206;2023-02-26T01:01:05;22.38;;;13.18;;
53022;SDS011;38913;44.338;11.206;2023-02-26T01:03:31;25.33;;;13.67;;
53022;SDS011;38913;44.338;11.206;2023-02-26T01:05:56;22.20;;;12.15;;
53022;SDS011;38913;44.338;11.206;2023-02-26T01:08:23;17.83;;;10.05;;
53022;SDS011;38913;44.338;11.206;2023-02-26T01:10:51;14.98;;;9.27;;
53022;SDS011;38913;44.338;11.206;2023-02-26T01:13:17;16.80;;;10.23;;
53022;SDS011;38913;44.338;11.206;2023-02-26T01:15:45;20.27;;;10.90;;
53022;SDS011;38913;44.338;11.206;2023-02-26T01:18:17;19.38;;;11.27;;
53022;SDS011;38913;44.338;11.206;2023-02-26T01:20:44;21.23;;;11.75;;
53022;SDS011;38913;44.338;11.206;2023-02-26T01:23:15;21.25;;;11.35;;
53022;SDS011;38913;44.338;11.206;2023-02-26T01:26:03;21.63;;;11.82;;
53022;SDS011;38913;44.338;11.206;2023-02-26T01:28:26;18.60;;;10.80;;
53022;SDS011;38913;44.338;11.206;2023-02-26T01:30:56;19.38;;;11.70;;
53022;SDS011;38913;44.338;11.206;2023-02-26T01:35:53;19.38;;;11.88;;
53022;SDS011;38913;44.338;11.206;2023-02-26T01:41:10;17.50;;;10.60;;
53022;SDS011;38913;44.338;11.206;2023-02-26T01:43:38;21.60;;;12.00;;
53022;SDS011;38913;44.338;11.206;2023-02-26T01:46:44;24.58;;;12.27;;
53022;SDS011;38913;44.338;11.206;2023-02-26T01:48:59;20.98;;;12.68;;
53022;SDS011;38913;44.338;11.206;2023-02-26T01:54:08;20.55;;;13.00;;
53022;SDS011;38913;44.338;11.206;2023-02-26T01:56:34;21.13;;;11.38;;
53022;SDS011;38913;44.338;11.206;2023-02-26T01:58:59;27.23;;;13.27;;
53022;SDS011;38913;44.338;11.206;2023-02-26T02:01:29;19.92;;;10.93;;
53022;SDS011;38913;44.338;11.206;2023-02-26T02:03:55;18.73;;;11.38;;
53022;SDS011;38913;44.338;11.206;2023-02-26T02:06:21;20.90;;;11.80;;
53022;SDS011;38913;44.338;11.206;2023-02-26T02:08:48;22.13;;;12.43;;
53022;SDS011;38913;44.338;11.206;2023-02-26T02:11:13;18.35;;;11.10;;
53022;SDS011;38913;44.338;11.206;2023-02-26T02:16:22;21.20;;;12.43;;
53022;SDS011;38913;44.338;11.206;2023-02-26T02:21:27;26.50;;;13.25;;
53022;SDS011;38913;44.338;11.206;2023-02-26T02:23:55;21.67;;;12.00;;
53022;SDS011;38913;44.338;11.206;2023-02-26T02:29:23;22.20;;;12.13;;
53022;SDS011;38913;44.338;11.206;2023-02-26T02:32:00;22.92;;;11.65;;
53022;SDS011;38913;44.338;11.206;2023-02-26T02:34:40;22.05;;;11.50;;
53022;SDS011;38913;44.338;11.206;2023-02-26T02:37:24;21.60;;;12.75;;
53022;SDS011;38913;44.338;11.206;2023-02-26T02:40:01;20.70;;;11.30;;
53022;SDS011;38913;44.338;11.206;2023-02-26T02:42:35;19.55;;;11.52;;
53022;SDS011;38913;44.338;11.206;2023-02-26T02:47:47;22.25;;;12.25;;
53022;SDS011;38913;44.338;11.206;2023-02-26T02:50:16;22.88;;;12.85;;
53022;SDS011;38913;44.338;11.206;2023-02-26T02:52:46;23.42;;;12.43;;
53022;SDS011;38913;44.338;11.206;2023-02-26T02:55:14;23.77;;;14.15;;
53022;SDS011;38913;44.338;11.206;2023-02-26T02:57:50;23.00;;;13.48;;
53022;SDS011;38913;44.338;11.206;2023-02-26T03:00:17;25.15;;;13.18;;
53022;SDS011;38913;44.338;11.206;2023-02-26T03:05:20;27.98;;;14.35;;
53022;SDS011;38913;44.338;11.206;2023-02-26T03:07:51;29.58;;;15.70;;
53022;SDS011;38913;44.338;11.206;2023-02-26T03:10:16;28.35;;;16.17;;
53022;SDS011;38913;44.338;11.206;2023-02-26T03:12:42;32.33;;;16.88;;
53022;SDS011;38913;44.338;11.206;2023-02-26T03:15:07;30.05;;;16.45;;
53022;SDS011;38913;44.338;11.206;2023-02-26T03:17:35;27.95;;;16.42;;
53022;SDS011;38913;44.338;11.206;2023-02-26T03:27:28;28.42;;;15.52;;
53022;SDS011;38913;44.338;11.206;2023-02-26T03:29:57;29.30;;;15.98;;
53022;SDS011;38913;44.338;11.206;2023-02-26T03:32:28;26.92;;;15.52;;
53022;SDS011;38913;44.338;11.206;2023-02-26T03:37:54;38.45;;;20.67;;
53022;SDS011;38913;44.338;11.206;2023-02-26T03:40:23;38.92;;;21.38;;
53022;SDS011;38913;44.338;11.206;2023-02-26T03:42:51;44.30;;;24.67;;
53022;SDS011;38913;44.338;11.206;2023-02-26T03:45:19;43.40;;;24.20;;
53022;SDS011;38913;44.338;11.206;2023-02-26T03:47:47;46.30;;;24.67;;
53022;SDS011;38913;44.338;11.206;2023-02-26T03:50:16;44.03;;;23.38;;
53022;SDS011;38913;44.338;11.206;2023-02-26T03:52:43;48.17;;;27.27;;
53022;SDS011;38913;44.338;11.206;2023-02-26T03:55:11;51.78;;;26.77;;
53022;SDS011;38913;44.338;11.206;2023-02-26T03:57:37;52.97;;;29.00;;
53022;SDS011;38913;44.338;11.206;2023-02-26T04:00:04;55.92;;;29.02;;
53022;SDS011;38913;44.338;11.206;2023-02-26T04:02:38;53.72;;;28.77;;
53022;SDS011;38913;44.338;11.206;2023-02-26T04:05:19;55.78;;;29.02;;
53022;SDS011;38913;44.338;11.206;2023-02-26T04:07:45;56.05;;;28.65;;
53022;SDS011;38913;44.338;11.206;2023-02-26T04:10:13;44.55;;;23.48;;
53022;SDS011;38913;44.338;11.206;2023-02-26T04:12:39;54.08;;;29.35;;
53022;SDS011;38913;44.338;11.206;2023-02-26T04:15:04;25.53;;;14.53;;
53022;SDS011;38913;44.338;11.206;2023-02-26T04:17:30;14.68;;;9.20;;
53022;SDS011;38913;44.338;11.206;2023-02-26T04:19:56;10.00;;;5.70;;
53022;SDS011;38913;44.338;11.206;2023-02-26T04:22:21;5.77;;;3.43;;
53022;SDS011;38913;44.338;11.206;2023-02-26T04:24:46;4.20;;;2.40;;
53022;SDS011;38913;44.338;11.206;2023-02-26T04:27:11;2.70;;;1.57;;
53022;SDS011;38913;44.338;11.206;2023-02-26T04:29:36;2.13;;;1.30;;
53022;SDS011;38913;44.338;11.206;2023-02-26T04:32:02;1.20;;;1.00;;
53022;SDS011;38913;44.338;11.206;2023-02-26T04:34:27;1.10;;;0.60;;
53022;SDS011;38913;44.338;11.206;2023-02-26T04:36:52;1.33;;;0.70;;
53022;SDS011;38913;44.338;11.206;2023-02-26T04:39:17;1.67;;;0.70;;
53022;SDS011;38913;44.338;11.206;2023-02-26T04:41:43;0.82;;;0.70;;
53022;SDS011;38913;44.338;11.206;2023-02-26T04:44:08;1.00;;;0.60;;
53022;SDS011;38913;44.338;11.206;2023-02-26T04:46:33;0.73;;;0.50;;
53022;SDS011;38913;44.338;11.206;2023-02-26T04:48:59;0.40;;;0.38;;
53022;SDS011;38913;44.338;11.206;2023-02-26T04:51:24;0.50;;;0.37;;
53022;SDS011;38913;44.338;11.206;2023-02-26T04:53:49;0.57;;;0.40;;
53022;SDS011;38913;44.338;11.206;2023-02-26T04:56:15;0.32;;;0.32;;
53022;SDS011;38913;44.338;11.206;2023-02-26T04:58:40;0.30;;;0.30;;
53022;SDS011;38913;44.338;11.206;2023-02-26T05:01:06;0.47;;;0.20;;
53022;SDS011;38913;44.338;11.206;2023-02-26T05:03:31;0.20;;;0.20;;
53022;SDS011;38913;44.338;11.206;2023-02-26T05:05:56;0.20;;;0.20;;
53022;SDS011;38913;44.338;11.206;2023-02-26T05:08:22;1.00;;;0.20;;
53022;SDS011;38913;44.338;11.206;2023-02-26T05:10:47;0.50;;;0.22;;
53022;SDS011;38913;44.338;11.206;2023-02-26T05:13:13;0.45;;;0.30;;
53022;SDS011;38913;44.338;11.206;2023-02-26T05:15:38;1.63;;;0.30;;
53022;SDS011;38913;44.338;11.206;2023-02-26T05:18:04;0.50;;;0.30;;
53022;SDS011;38913;44.338;11.206;2023-02-26T05:20:29;0.53;;;0.20;;
53022;SDS011;38913;44.338;11.206;2023-02-26T05:22:54;0.30;;;0.20;;
53022;SDS011;38913;44.338;11.206;2023-02-26T05:25:19;0.25;;;0.20;;
53022;SDS011;38913;44.338;11.206;2023-02-26T05:27:45;0.40;;;0.30;;
53022;SDS011;38913;44.338;11.206;2023-02-26T05:30:11;0.23;;;0.20;;
53022;SDS011;38913;44.338;11.206;2023-02-26T05:32:37;0.20;;;0.20;;
53022;SDS011;38913;44.338;11.206;2023-02-26T05:35:03;0.43;;;0.20;;
53022;SDS011;38913;44.338;11.206;2023-02-26T05:37:28;0.30;;;0.20;;
53022;SDS011;38913;44.338;11.206;2023-02-26T05:39:54;0.20;;;0.20;;
53022;SDS011;38913;44.338;11.206;2023-02-26T05:42:19;0.40;;;0.20;;
53022;SDS011;38913;44.338;11.206;2023-02-26T05:44:44;0.10;;;0.10;;
53022;SDS011;38913;44.338;11.206;2023-02-26T05:47:09;0.20;;;0.10;;
53022;SDS011;38913;44.338;11.206;2023-02-26T05:49:34;1.90;;;0.13;;
53022;SDS011;38913;44.338;11.206;2023-02-26T05:52:00;2.23;;;0.50;;
53022;SDS011;38913;44.338;11.206;2023-02-26T05:54:25;0.17;;;0.17;;
53022;SDS011;38913;44.338;11.206;2023-02-26T05:56:50;0.93;;;0.20;;
53022;SDS011;38913;44.338;11.206;2023-02-26T05:59:16;1.33;;;0.25;;
53022;SDS011;38913;44.338;11.206;2023-02-26T06:01:41;0.30;;;0.30;;
53022;SDS011;38913;44.338;11.206;2023-02-26T06:04:06;2.53;;;0.30;;
53022;SDS011;38913;44.338;11.206;2023-02-26T06:06:32;0.30;;;0.30;;
53022;SDS011;38913;44.338;11.206;2023-02-26T06:08:57;1.65;;;0.32;;
53022;SDS011;38913;44.338;11.206;2023-02-26T06:11:24;0.35;;;0.20;;
53022;SDS011;38913;44.338;11.206;2023-02-26T06:13:49;0.20;;;0.20;;
53022;SDS011;38913;44.338;11.206;2023-02-26T06:16:14;0.70;;;0.30;;
53022;SDS011;38913;44.338;11.206;2023-02-26T06:18:40;0.37;;;0.20;;
53022;SDS011;38913;44.338;11.206;2023-02-26T06:21:05;0.10;;;0.10;;
53022;SDS011;38913;44.338;11.206;2023-02-26T06:23:30;0.20;;;0.20;;
53022;SDS011;38913;44.338;11.206;2023-02-26T06:25:56;2.67;;;0.20;;
53022;SDS011;38913;44.338;11.206;2023-02-26T06:28:23;0.47;;;0.20;;
53022;SDS011;38913;44.338;11.206;2023-02-26T06:30:50;0.40;;;0.30;;
53022;SDS011;38913;44.338;11.206;2023-02-26T06:33:16;0.20;;;0.20;;
53022;SDS011;38913;44.338;11.206;2023-02-26T06:35:41;0.40;;;0.20;;
53022;SDS011;38913;44.338;11.206;2023-02-26T06:38:06;0.55;;;0.30;;
53022;SDS011;38913;44.338;11.206;2023-02-26T06:40:31;1.20;;;0.50;;
53022;SDS011;38913;44.338;11.206;2023-02-26T06:42:57;0.20;;;0.20;;
53022;SDS011;38913;44.338;11.206;2023-02-26T06:45:22;0.22;;;0.20;;
53022;SDS011;38913;44.338;11.206;2023-02-26T06:47:49;0.60;;;0.30;;
53022;SDS011;38913;44.338;11.206;2023-02-26T06:50:14;0.40;;;0.20;;
53022;SDS011;38913;44.338;11.206;2023-02-26T06:52:40;0.20;;;0.20;;
53022;SDS011;38913;44.338;11.206;2023-02-26T06:55:05;0.83;;;0.30;;
53022;SDS011;38913;44.338;11.206;2023-02-26T06:57:30;0.85;;;0.17;;
53022;SDS011;38913;44.338;11.206;2023-02-26T06:59:55;0.30;;;0.20;;
53022;SDS011;38913;44.338;11.206;2023-02-26T07:02:21;0.40;;;0.30;;
53022;SDS011;38913;44.338;11.206;2023-02-26T07:04:47;0.40;;;0.20;;
53022;SDS011;38913;44.338;11.206;2023-02-26T07:07:12;0.73;;;0.30;;
53022;SDS011;38913;44.338;11.206;2023-02-26T07:09:37;0.20;;;0.20;;
53022;SDS011;38913;44.338;11.206;2023-02-26T07:12:03;0.20;;;0.20;;
53022;SDS011;38913;44.338;11.206;2023-02-26T07:14:28;0.68;;;0.25;;
53022;SDS011;38913;44.338;11.206;2023-02-26T07:16:54;0.80;;;0.25;;
53022;SDS011;38913;44.338;11.206;2023-02-26T07:19:19;0.20;;;0.20;;
53022;SDS011;38913;44.338;11.206;2023-02-26T07:21:44;0.57;;;0.17;;
53022;SDS011;38913;44.338;11.206;2023-02-26T07:24:10;0.50;;;0.20;;
53022;SDS011;38913;44.338;11.206;2023-02-26T07:26:35;0.95;;;0.30;;
53022;SDS011;38913;44.338;11.206;2023-02-26T07:29:00;0.20;;;0.20;;
53022;SDS011;38913;44.338;11.206;2023-02-26T07:31:26;0.77;;;0.30;;
53022;SDS011;38913;44.338;11.206;2023-02-26T07:33:51;0.75;;;0.30;;
53022;SDS011;38913;44.338;11.206;2023-02-26T07:36:17;1.03;;;0.30;;
53022;SDS011;38913;44.338;11.206;2023-02-26T07:38:42;1.17;;;0.20;;
53022;SDS011;38913;44.338;11.206;2023-02-26T07:41:07;2.63;;;1.23;;
53022;SDS011;38913;44.338;11.206;2023-02-26T07:43:33;0.20;;;0.20;;
53022;SDS011;38913;44.338;11.206;2023-02-26T07:45:58;1.40;;;0.20;;
53022;SDS011;38913;44.338;11.206;2023-02-26T07:48:23;1.65;;;0.35;;
53022;SDS011;38913;44.338;11.206;2023-02-26T07:50:50;1.83;;;0.37;;
53022;SDS011;38913;44.338;11.206;2023-02-26T07:53:15;0.73;;;0.25;;
53022;SDS011;38913;44.338;11.206;2023-02-26T07:55:40;2.42;;;0.30;;
53022;SDS011;38913;44.338;11.206;2023-02-26T07:58:06;1.45;;;0.70;;
53022;SDS011;38913;44.338;11.206;2023-02-26T08:00:31;2.27;;;0.40;;
53022;SDS011;38913;44.338;11.206;2023-02-26T08:02:57;1.33;;;0.40;;
53022;SDS011;38913;44.338;11.206;2023-02-26T08:05:22;0.82;;;0.68;;
53022;SDS011;38913;44.338;11.206;2023-02-26T08:07:47;3.40;;;1.40;;
53022;SDS011;38913;44.338;11.206;2023-02-26T08:10:13;0.80;;;0.52;;
53022;SDS011;38913;44.338;11.206;2023-02-26T08:12:38;0.50;;;0.32;;
53022;SDS011;38913;44.338;11.206;2023-02-26T08:15:03;1.48;;;0.50;;
53022;SDS011;38913;44.338;11.206;2023-02-26T08:17:29;3.63;;;0.45;;
53022;SDS011;38913;44.338;11.206;2023-02-26T08:19:54;1.30;;;0.55;;
53022;SDS011;38913;44.338;11.206;2023-02-26T08:22:20;1.03;;;0.57;;
53022;SDS011;38913;44.338;11.206;2023-02-26T08:24:45;1.35;;;0.40;;
53022;SDS011;38913;44.338;11.206;2023-02-26T08:27:11;1.43;;;0.37;;
53022;SDS011;38913;44.338;11.206;2023-02-26T08:29:36;1.17;;;0.30;;
53022;SDS011;38913;44.338;11.206;2023-02-26T08:32:01;1.13;;;0.40;;
53022;SDS011;38913;44.338;11.206;2023-02-26T08:34:27;0.93;;;0.50;;
53022;SDS011;38913;44.338;11.206;2023-02-26T08:36:52;0.87;;;0.43;;
53022;SDS011;38913;44.338;11.206;2023-02-26T08:39:17;0.55;;;0.47;;
53022;SDS011;38913;44.338;11.206;2023-02-26T08:41:42;1.57;;;0.33;;
53022;SDS011;38913;44.338;11.206;2023-02-26T08:44:07;1.37;;;0.40;;
53022;SDS011;38913;44.338;11.206;2023-02-26T08:46:33;0.85;;;0.40;;
53022;SDS011;38913;44.338;11.206;2023-02-26T08:48:58;0.88;;;0.32;;
53022;SDS011;38913;44.338;11.206;2023-02-26T08:51:23;1.42;;;0.50;;
53022;SDS011;38913;44.338;11.206;2023-02-26T08:53:49;0.73;;;0.50;;
53022;SDS011;38913;44.338;11.206;2023-02-26T08:56:14;0.30;;;0.30;;
53022;SDS011;38913;44.338;11.206;2023-02-26T08:58:39;1.42;;;0.40;;
53022;SDS011;38913;44.338;11.206;2023-02-26T09:01:05;0.60;;;0.30;;
53022;SDS011;38913;44.338;11.206;2023-02-26T09:03:30;2.38;;;1.00;;
53022;SDS011;38913;44.338;11.206;2023-02-26T09:05:55;2.83;;;0.50;;
53022;SDS011;38913;44.338;11.206;2023-02-26T09:08:21;0.70;;;0.50;;
53022;SDS011;38913;44.338;11.206;2023-02-26T09:10:46;1.10;;;0.35;;
53022;SDS011;38913;44.338;11.206;2023-02-26T09:13:11;1.50;;;0.52;;
53022;SDS011;38913;44.338;11.206;2023-02-26T09:15:37;1.63;;;0.50;;
53022;SDS011;38913;44.338;11.206;2023-02-26T09:18:02;2.25;;;0.60;;
53022;SDS011;38913;44.338;11.206;2023-02-26T09:20:27;0.68;;;0.30;;
53022;SDS011;38913;44.338;11.206;2023-02-26T09:22:53;1.27;;;0.30;;
53022;SDS011;38913;44.338;11.206;2023-02-26T09:25:18;1.70;;;0.30;;
53022;SDS011;38913;44.338;11.206;2023-02-26T09:27:43;2.50;;;0.40;;
53022;SDS011;38913;44.338;11.206;2023-02-26T09:30:09;3.45;;;0.43;;
53022;SDS011;38913;44.338;11.206;2023-02-26T09:32:34;1.30;;;0.32;;
53022;SDS011;38913;44.338;11.206;2023-02-26T09:34:59;2.37;;;0.50;;
53022;SDS011;38913;44.338;11.206;2023-02-26T09:37:25;3.15;;;0.70;;
53022;SDS011;38913;44.338;11.206;2023-02-26T09:39:50;0.82;;;0.50;;
53022;SDS011;38913;44.338;11.206;2023-02-26T09:45:00;1.25;;;0.50;;
53022;SDS011;38913;44.338;11.206;2023-02-26T09:47:31;1.90;;;0.45;;
53022;SDS011;38913;44.338;11.206;2023-02-26T09:50:09;1.83;;;0.60;;
53022;SDS011;38913;44.338;11.206;2023-02-26T09:55:04;2.45;;;0.50;;
53022;SDS011;38913;44.338;11.206;2023-02-26T09:57:31;2.65;;;0.57;;
53022;SDS011;38913;44.338;11.206;2023-02-26T09:59:57;2.30;;;0.70;;
53022;SDS011;38913;44.338;11.206;2023-02-26T10:07:49;4.32;;;0.55;;
53022;SDS011;38913;44.338;11.206;2023-02-26T10:13:01;2.08;;;0.60;;
53022;SDS011;38913;44.338;11.206;2023-02-26T10:15:36;2.28;;;0.40;;
53022;SDS011;38913;44.338;11.206;2023-02-26T10:23:48;2.15;;;0.77;;
53022;SDS011;38913;44.338;11.206;2023-02-26T10:31:31;3.08;;;0.50;;
53022;SDS011;38913;44.338;11.206;2023-02-26T10:36:34;1.92;;;0.43;;
53022;SDS011;38913;44.338;11.206;2023-02-26T10:39:16;3.25;;;0.60;;
53022;SDS011;38913;44.338;11.206;2023-02-26T10:41:44;2.15;;;0.50;;
53022;SDS011;38913;44.338;11.206;2023-02-26T10:44:31;4.65;;;0.57;;
53022;SDS011;38913;44.338;11.206;2023-02-26T10:49:59;2.17;;;0.50;;
53022;SDS011;38913;44.338;11.206;2023-02-26T10:52:27;3.03;;;0.52;;
53022;SDS011;38913;44.338;11.206;2023-02-26T10:57:39;3.33;;;0.75;;
53022;SDS011;38913;44.338;11.206;2023-02-26T11:00:08;2.45;;;0.60;;
53022;SDS011;38913;44.338;11.206;2023-02-26T11:02:39;3.58;;;0.60;;
53022;SDS011;38913;44.338;11.206;2023-02-26T11:05:05;2.72;;;0.57;;
53022;SDS011;38913;44.338;11.206;2023-02-26T11:07:31;1.30;;;0.65;;
53022;SDS011;38913;44.338;11.206;2023-02-26T11:09:57;2.03;;;0.70;;
53022;SDS011;38913;44.338;11.206;2023-02-26T11:12:23;3.55;;;0.68;;
53022;SDS011;38913;44.338;11.206;2023-02-26T11:14:49;5.13;;;1.13;;
53022;SDS011;38913;44.338;11.206;2023-02-26T11:17:18;7.13;;;0.77;;
53022;SDS011;38913;44.338;11.206;2023-02-26T11:19:50;2.97;;;0.70;;
53022;SDS011;38913;44.338;11.206;2023-02-26T11:22:16;3.10;;;0.75;;
53022;SDS011;38913;44.338;11.206;2023-02-26T11:24:46;5.55;;;0.90;;
53022;SDS011;38913;44.338;11.206;2023-02-26T11:27:19;4.35;;;0.82;;
53022;SDS011;38913;44.338;11.206;2023-02-26T11:29:48;6.03;;;0.90;;
53022;SDS011;38913;44.338;11.206;2023-02-26T11:32:18;3.90;;;1.02;;
53022;SDS011;38913;44.338;11.206;2023-02-26T11:34:45;2.53;;;0.80;;
53022;SDS011;38913;44.338;11.206;2023-02-26T11:37:11;4.22;;;1.08;;
53022;SDS011;38913;44.338;11.206;2023-02-26T11:39:36;2.45;;;0.88;;
53022;SDS011;38913;44.338;11.206;2023-02-26T11:42:02;5.43;;;0.90;;
53022;SDS011;38913;44.338;11.206;2023-02-26T11:44:33;3.10;;;0.95;;
53022;SDS011;38913;44.338;11.206;2023-02-26T11:47:00;4.68;;;1.00;;
53022;SDS011;38913;44.338;11.206;2023-02-26T11:49:27;5.57;;;0.80;;
53022;SDS011;38913;44.338;11.206;2023-02-26T11:54:34;8.18;;;1.33;;
53022;SDS011;38913;44.338;11.206;2023-02-26T11:57:00;3.80;;;1.30;;
53022;SDS011;38913;44.338;11.206;2023-02-26T11:59:26;7.80;;;1.35;;
53022;SDS011;38913;44.338;11.206;2023-02-26T12:01:54;4.68;;;1.40;;
53022;SDS011;38913;44.338;11.206;2023-02-26T12:04:21;7.82;;;1.30;;
53022;SDS011;38913;44.338;11.206;2023-02-26T12:06:52;5.28;;;1.80;;
53022;SDS011;38913;44.338;11.206;2023-02-26T12:09:18;7.28;;;1.52;;
53022;SDS011;38913;44.338;11.206;2023-02-26T12:24:44;3.70;;;1.30;;
53022;SDS011;38913;44.338;11.206;2023-02-26T12:37:31;5.25;;;1.35;;
53022;SDS011;38913;44.338;11.206;2023-02-26T12:40:04;3.92;;;1.45;;
53022;SDS011;38913;44.338;11.206;2023-02-26T12:50:42;4.22;;;1.83;;
53022;SDS011;38913;44.338;11.206;2023-02-26T12:53:30;4.22;;;1.60;;
53022;SDS011;38913;44.338;11.206;2023-02-26T12:56:03;3.25;;;1.23;;
53022;SDS011;38913;44.338;11.206;2023-02-26T12:58:40;4.60;;;1.20;;
53022;SDS011;38913;44.338;11.206;2023-02-26T13:06:24;3.15;;;1.10;;
53022;SDS011;38913;44.338;11.206;2023-02-26T13:09:01;5.35;;;1.52;;
53022;SDS011;38913;44.338;11.206;2023-02-26T13:18:55;3.83;;;1.20;;
53022;SDS011;38913;44.338;11.206;2023-02-26T13:24:16;7.75;;;1.88;;
53022;SDS011;38913;44.338;11.206;2023-02-26T13:26:42;4.43;;;1.10;;
53022;SDS011;38913;44.338;11.206;2023-02-26T13:29:14;2.83;;;1.20;;
53022;SDS011;38913;44.338;11.206;2023-02-26T13:31:42;4.68;;;1.88;;
53022;SDS011;38913;44.338;11.206;2023-02-26T13:34:14;3.58;;;1.38;;
53022;SDS011;38913;44.338;11.206;2023-02-26T13:36:39;2.72;;;1.02;;
53022;SDS011;38913;44.338;11.206;2023-02-26T13:39:08;4.18;;;1.05;;
53022;SDS011;38913;44.338;11.206;2023-02-26T13:44:14;3.23;;;1.20;;
53022;SDS011;38913;44.338;11.206;2023-02-26T13:51:59;5.22;;;1.10;;
53022;SDS011;38913;44.338;11.206;2023-02-26T13:54:42;2.38;;;1.00;;
53022;SDS011;38913;44.338;11.206;2023-02-26T13:57:14;1.08;;;0.70;;
53022;SDS011;38913;44.338;11.206;2023-02-26T13:59:52;2.28;;;0.80;;
53022;SDS011;38913;44.338;11.206;2023-02-26T14:04:50;3.00;;;0.87;;
53022;SDS011;38913;44.338;11.206;2023-02-26T14:07:16;4.22;;;0.82;;
53022;SDS011;38913;44.338;11.206;2023-02-26T14:10:00;2.17;;;1.00;;
53022;SDS011;38913;44.338;11.206;2023-02-26T14:12:36;2.17;;;0.60;;
53022;SDS011;38913;44.338;11.206;2023-02-26T14:17:39;1.48;;;0.75;;
53022;SDS011;38913;44.338;11.206;2023-02-26T14:22:34;2.30;;;1.10;;
53022;SDS011;38913;44.338;11.206;2023-02-26T14:30:04;1.13;;;0.70;;
53022;SDS011;38913;44.338;11.206;2023-02-26T14:34:56;1.27;;;0.60;;
53022;SDS011;38913;44.338;11.206;2023-02-26T14:37:24;2.85;;;0.82;;
53022;SDS011;38913;44.338;11.206;2023-02-26T14:39:54;1.30;;;0.70;;
53022;SDS011;38913;44.338;11.206;2023-02-26T14:42:34;1.50;;;0.70;;
53022;SDS011;38913;44.338;11.206;2023-02-26T14:47:28;1.38;;;0.60;;
53022;SDS011;38913;44.338;11.206;2023-02-26T14:49:53;0.90;;;0.57;;
53022;SDS011;38913;44.338;11.206;2023-02-26T14:52:30;1.08;;;0.70;;
53022;SDS011;38913;44.338;11.206;2023-02-26T15:02:50;3.15;;;1.10;;
53022;SDS011;38913;44.338;11.206;2023-02-26T15:05:23;3.47;;;1.30;;
53022;SDS011;38913;44.338;11.206;2023-02-26T15:07:55;2.92;;;1.40;;
53022;SDS011;38913;44.338;11.206;2023-02-26T15:15:29;3.05;;;1.38;;
53022;SDS011;38913;44.338;11.206;2023-02-26T15:27:50;2.47;;;1.30;;
53022;SDS011;38913;44.338;11.206;2023-02-26T15:30:16;3.33;;;1.15;;
53022;SDS011;38913;44.338;11.206;2023-02-26T15:32:42;2.40;;;1.70;;
53022;SDS011;38913;44.338;11.206;2023-02-26T15:35:15;3.33;;;1.58;;
53022;SDS011;38913;44.338;11.206;2023-02-26T15:37:41;2.70;;;1.40;;
53022;SDS011;38913;44.338;11.206;2023-02-26T15:40:07;2.40;;;1.60;;
53022;SDS011;38913;44.338;11.206;2023-02-26T15:42:36;2.20;;;2.00;;
53022;SDS011;38913;44.338;11.206;2023-02-26T15:45:04;4.00;;;1.73;;
53022;SDS011;38913;44.338;11.206;2023-02-26T15:47:30;3.58;;;1.67;;
53022;SDS011;38913;44.338;11.206;2023-02-26T15:49:56;4.65;;;2.70;;
53022;SDS011;38913;44.338;11.206;2023-02-26T15:52:23;4.32;;;1.60;;
53022;SDS011;38913;44.338;11.206;2023-02-26T15:54:51;5.93;;;3.53;;
53022;SDS011;38913;44.338;11.206;2023-02-26T15:57:17;3.47;;;2.00;;
53022;SDS011;38913;44.338;11.206;2023-02-26T15:59:47;2.45;;;1.80;;
53022;SDS011;38913;44.338;11.206;2023-02-26T16:02:14;3.75;;;1.77;;
53022;SDS011;38913;44.338;11.206;2023-02-26T16:04:40;2.83;;;1.60;;
53022;SDS011;38913;44.338;11.206;2023-02-26T16:07:05;3.00;;;2.15;;
53022;SDS011;38913;44.338;11.206;2023-02-26T16:09:34;2.77;;;1.80;;
53022;SDS011;38913;44.338;11.206;2023-02-26T16:12:04;3.42;;;2.00;;
53022;SDS011;38913;44.338;11.206;2023-02-26T16:14:32;2.45;;;1.90;;
53022;SDS011;38913;44.338;11.206;2023-02-26T16:16:59;3.38;;;1.58;;
53022;SDS011;38913;44.338;11.206;2023-02-26T16:19:35;1.50;;;1.30;;
53022;SDS011;38913;44.338;11.206;2023-02-26T16:22:04;1.75;;;1.40;;
53022;SDS011;38913;44.338;11.206;2023-02-26T16:24:31;1.60;;;1.10;;
53022;SDS011;38913;44.338;11.206;2023-02-26T16:27:02;1.17;;;1.02;;
53022;SDS011;38913;44.338;11.206;2023-02-26T16:29:31;1.17;;;1.05;;
53022;SDS011;38913;44.338;11.206;2023-02-26T16:31:59;2.13;;;1.35;;
53022;SDS011;38913;44.338;11.206;2023-02-26T16:36:51;2.20;;;1.35;;
53022;SDS011;38913;44.338;11.206;2023-02-26T16:39:20;2.20;;;1.50;;
53022;SDS011;38913;44.338;11.206;2023-02-26T16:41:47;2.33;;;1.50;;
53022;SDS011;38913;44.338;11.206;2023-02-26T16:44:34;2.40;;;1.30;;
53022;SDS011;38913;44.338;11.206;2023-02-26T16:47:00;3.72;;;1.63;;
53022;SDS011;38913;44.338;11.206;2023-02-26T16:49:32;4.32;;;1.20;;
53022;SDS011;38913;44.338;11.206;2023-02-26T16:51:58;1.90;;;1.33;;
53022;SDS011;38913;44.338;11.206;2023-02-26T16:54:25;1.67;;;1.30;;
53022;SDS011;38913;44.338;11.206;2023-02-26T16:57:13;2.83;;;1.33;;
53022;SDS011;38913;44.338;11.206;2023-02-26T16:59:37;2.00;;;1.50;;
53022;SDS011;38913;44.338;11.206;2023-02-26T17:02:12;2.60;;;1.73;;
53022;SDS011;38913;44.338;11.206;2023-02-26T17:04:39;3.38;;;1.70;;
53022;SDS011;38913;44.338;11.206;2023-02-26T17:07:14;2.40;;;1.70;;
53022;SDS011;38913;44.338;11.206;2023-02-26T17:09:40;5.75;;;2.00;;
53022;SDS011;38913;44.338;11.206;2023-02-26T17:12:10;2.20;;;1.63;;
53022;SDS011;38913;44.338;11.206;2023-02-26T17:14:38;2.95;;;1.70;;
53022;SDS011;38913;44.338;11.206;2023-02-26T17:17:04;2.25;;;1.70;;
53022;SDS011;38913;44.338;11.206;2023-02-26T17:19:30;5.17;;;2.07;;